createdAt,value
2023-02-24T00:02:01.764Z,5.40
2023-02-24T00:04:33.150Z,5.40
2023-02-24T00:07:02.594Z,5.40
2023-02-24T00:09:33.311Z,5.40
2023-02-24T00:12:05.950Z,5.30
2023-02-24T00:14:37.506Z,5.30
2023-02-24T00:17:08.049Z,5.20
2023-02-24T00:19:37.870Z,5.20
2023-02-24T00:22:08.956Z,5.20
2023-02-24T00:24:37.745Z,5.20
2023-02-24T00:27:11.352Z,5.10
2023-02-24T00:29:40.377Z,5.00
2023-02-24T00:32:12.774Z,5.00
2023-02-24T00:34:43.143Z,4.90
2023-02-24T00:37:12.157Z,4.80
2023-02-24T00:39:41.726Z,4.70
2023-02-24T00:42:12.866Z,4.70
2023-02-24T00:44:45.576Z,4.70
2023-02-24T00:47:16.364Z,4.60
2023-02-24T00:49:45.098Z,4.50
2023-02-24T00:52:16.414Z,4.40
2023-02-24T00:54:48.336Z,4.40
2023-02-24T00:57:21.352Z,4.30
2023-02-24T00:59:51.608Z,4.30
2023-02-24T01:02:20.467Z,4.20
2023-02-24T01:04:49.956Z,4.20
2023-02-24T01:07:19.673Z,4.20
2023-02-24T01:09:51.142Z,4.10
2023-02-24T01:12:39.622Z,4.10
2023-02-24T01:15:11.253Z,4.10
2023-02-24T01:17:39.582Z,4.00
2023-02-24T01:20:16.740Z,4.10
2023-02-24T01:22:47.348Z,4.10
2023-02-24T01:25:16.211Z,4.00
2023-02-24T01:27:45.970Z,4.00
2023-02-24T01:30:16.216Z,4.00
2023-02-24T01:32:46.652Z,4.00
2023-02-24T01:35:15.881Z,4.10
2023-02-24T01:37:45.485Z,4.10
2023-02-24T01:40:21.613Z,4.10
2023-02-24T01:42:52.233Z,4.10
2023-02-24T01:45:28.637Z,4.10
2023-02-24T01:48:02.259Z,4.10
2023-02-24T01:50:32.894Z,4.10
2023-02-24T01:53:05.434Z,4.10
2023-02-24T01:55:36.918Z,4.20
2023-02-24T01:58:16.167Z,4.10
2023-02-24T02:00:47.991Z,4.10
2023-02-24T02:03:30.484Z,4.20
2023-02-24T02:06:04.106Z,4.10
2023-02-24T02:08:36.486Z,4.20
2023-02-24T02:11:10.220Z,4.20
2023-02-24T02:13:44.676Z,4.20
2023-02-24T02:16:44.160Z,4.20
2023-02-24T02:20:15.925Z,4.20
2023-02-24T02:23:16.610Z,4.20
2023-02-24T02:26:05.418Z,4.20
2023-02-24T02:29:34.253Z,4.20
2023-02-24T02:33:13.172Z,4.20
2023-02-24T02:35:51.980Z,4.20
2023-02-24T02:38:28.612Z,4.20
2023-02-24T02:41:08.539Z,4.20
2023-02-24T02:43:46.133Z,4.20
2023-02-24T02:46:17.678Z,4.20
2023-02-24T02:48:54.468Z,4.10
2023-02-24T02:51:30.441Z,4.10
2023-02-24T02:54:05.864Z,4.20
2023-02-24T02:56:39.189Z,4.20
2023-02-24T02:59:12.701Z,4.10
2023-02-24T03:01:43.898Z,4.10
2023-02-24T03:04:17.130Z,4.00
2023-02-24T03:06:53.372Z,4.10
2023-02-24T03:09:25.757Z,4.10
2023-02-24T03:11:59.729Z,4.00
2023-02-24T03:14:33.235Z,4.00
2023-02-24T03:17:04.523Z,4.00
2023-02-24T03:19:38.722Z,4.00
2023-02-24T03:22:14.698Z,4.00
2023-02-24T03:24:44.580Z,4.00
2023-02-24T03:27:20.191Z,4.00
2023-02-24T03:29:52.756Z,4.00
2023-02-24T03:32:33.193Z,4.00
2023-02-24T03:35:09.754Z,4.10
2023-02-24T03:37:39.541Z,4.00
2023-02-24T03:40:14.486Z,4.00
2023-02-24T03:42:46.644Z,4.10
2023-02-24T03:45:16.419Z,4.10
2023-02-24T03:47:46.777Z,4.10
2023-02-24T03:50:18.916Z,4.10
2023-02-24T03:53:01.459Z,4.10
2023-02-24T03:55:40.230Z,4.00
2023-02-24T03:58:19.850Z,4.10
2023-02-24T04:00:57.898Z,4.10
2023-02-24T04:03:34.589Z,4.10
2023-02-24T04:06:14.422Z,4.10
2023-02-24T04:08:53.322Z,4.10
2023-02-24T04:11:29.088Z,4.10
2023-02-24T04:14:06.467Z,4.10
2023-02-24T04:16:40.595Z,4.10
2023-02-24T04:19:15.248Z,4.10
2023-02-24T04:21:45.664Z,4.10
2023-02-24T04:24:16.134Z,4.10
2023-02-24T04:26:46.934Z,4.10
2023-02-24T04:29:21.147Z,4.10
2023-02-24T04:31:56.169Z,4.10
2023-02-24T04:34:26.455Z,4.10
2023-02-24T04:36:55.121Z,4.10
2023-02-24T04:39:24.813Z,4.10
2023-02-24T04:41:53.659Z,4.10
2023-02-24T04:44:23.210Z,4.10
2023-02-24T04:46:52.488Z,4.10
2023-02-24T04:49:22.271Z,4.10
2023-02-24T04:51:51.614Z,4.10
2023-02-24T04:54:21.918Z,4.20
2023-02-24T04:56:54.049Z,4.10
2023-02-24T04:59:24.875Z,4.10
2023-02-24T05:01:55.014Z,4.10
2023-02-24T05:04:24.000Z,4.10
2023-02-24T05:06:52.287Z,4.20
2023-02-24T05:09:21.207Z,4.20
2023-02-24T05:11:53.093Z,4.10
2023-02-24T05:14:23.111Z,4.20
2023-02-24T05:16:53.013Z,4.20
2023-02-24T05:19:39.268Z,4.20
2023-02-24T05:22:09.910Z,4.10
2023-02-24T05:24:38.673Z,4.10
2023-02-24T05:27:08.583Z,4.10
2023-02-24T05:29:38.566Z,4.10
2023-02-24T05:32:08.348Z,4.10
2023-02-24T05:34:39.089Z,4.10
2023-02-24T05:37:10.643Z,4.10
2023-02-24T05:39:39.335Z,4.10
2023-02-24T05:42:09.255Z,4.10
2023-02-24T05:44:38.204Z,4.10
2023-02-24T05:47:06.897Z,4.10
2023-02-24T05:49:38.883Z,4.00
2023-02-24T05:52:09.590Z,4.10
2023-02-24T05:54:41.951Z,4.00
2023-02-24T05:57:13.455Z,4.00
2023-02-24T05:59:43.342Z,4.00
2023-02-24T06:02:14.015Z,4.00
2023-02-24T06:04:51.312Z,3.90
2023-02-24T06:07:24.928Z,3.90
2023-02-24T06:09:57.225Z,4.00
2023-02-24T06:12:30.629Z,4.00
2023-02-24T06:14:59.252Z,4.00
2023-02-24T06:17:29.042Z,4.00
2023-02-24T06:19:57.672Z,4.00
2023-02-24T06:22:28.085Z,4.00
2023-02-24T06:24:57.366Z,4.00
2023-02-24T06:27:27.146Z,4.00
2023-02-24T06:29:56.926Z,4.00
2023-02-24T06:32:28.496Z,4.10
2023-02-24T06:34:59.328Z,4.00
2023-02-24T06:37:28.324Z,4.00
2023-02-24T06:39:58.309Z,4.00
2023-02-24T06:42:28.225Z,4.00
2023-02-24T06:44:56.516Z,4.00
2023-02-24T06:47:24.759Z,4.00
2023-02-24T06:49:53.606Z,4.00
2023-02-24T06:52:21.924Z,3.90
2023-02-24T06:54:52.450Z,3.90
2023-02-24T06:57:20.990Z,3.90
2023-02-24T06:59:50.997Z,3.90
2023-02-24T07:02:19.300Z,3.90
2023-02-24T07:04:48.173Z,3.90
2023-02-24T07:07:17.685Z,3.90
2023-02-24T07:09:46.088Z,3.90
2023-02-24T07:12:21.012Z,3.90
2023-02-24T07:14:50.908Z,4.00
2023-02-24T07:17:21.000Z,3.90
2023-02-24T07:19:49.282Z,3.90
2023-02-24T07:22:25.228Z,4.00
2023-02-24T07:25:00.543Z,4.00
2023-02-24T07:27:29.192Z,4.00
2023-02-24T07:29:59.232Z,4.00
2023-02-24T07:32:28.012Z,4.00
2023-02-24T07:34:56.423Z,4.00
2023-02-24T07:37:24.741Z,4.10
2023-02-24T07:39:53.037Z,4.10
2023-02-24T07:42:21.361Z,4.10
2023-02-24T07:44:49.718Z,4.10
2023-02-24T07:47:21.480Z,4.20
2023-02-24T07:49:51.167Z,4.10
2023-02-24T07:52:19.683Z,4.10
2023-02-24T07:54:49.766Z,4.10
2023-02-24T07:57:18.990Z,4.20
2023-02-24T07:59:48.281Z,4.20
2023-02-24T08:02:18.776Z,4.20
2023-02-24T08:04:50.542Z,4.20
2023-02-24T08:07:24.572Z,4.20
2023-02-24T08:10:14.399Z,4.30
2023-02-24T08:12:43.789Z,4.30
2023-02-24T08:15:24.059Z,4.30
2023-02-24T08:17:59.632Z,4.30
2023-02-24T08:20:36.129Z,4.30
2023-02-24T08:23:08.576Z,4.40
2023-02-24T08:25:37.067Z,4.40
2023-02-24T08:28:11.571Z,4.40
2023-02-24T08:30:45.700Z,4.40
2023-02-24T08:33:21.308Z,4.40
2023-02-24T08:36:00.976Z,4.50
2023-02-24T08:38:39.956Z,4.40
2023-02-24T08:41:17.774Z,4.50
2023-02-24T08:43:47.484Z,4.50
2023-02-24T08:46:22.269Z,4.50
2023-02-24T08:48:56.273Z,4.50
2023-02-24T08:51:29.740Z,4.60
2023-02-24T08:54:01.694Z,4.50
2023-02-24T08:56:34.731Z,4.60
2023-02-24T08:59:06.692Z,4.60
2023-02-24T09:01:38.601Z,4.70
2023-02-24T09:04:12.357Z,4.70
2023-02-24T09:06:47.404Z,4.70
2023-02-24T09:09:19.314Z,4.70
2023-02-24T09:11:49.482Z,4.80
2023-02-24T09:14:27.366Z,4.90
2023-02-24T09:17:06.008Z,4.90
2023-02-24T09:20:01.673Z,4.90
2023-02-24T09:22:32.986Z,4.90
2023-02-24T09:25:21.496Z,5.00
2023-02-24T09:27:57.042Z,5.00
2023-02-24T09:30:38.998Z,5.10
2023-02-24T09:33:18.760Z,5.20
2023-02-24T09:36:03.241Z,5.20
2023-02-24T09:38:57.778Z,5.20
2023-02-24T09:41:54.278Z,5.20
2023-02-24T09:44:29.840Z,5.30
2023-02-24T09:47:08.960Z,5.20
2023-02-24T09:49:50.310Z,5.30
2023-02-24T09:52:20.710Z,5.30
2023-02-24T09:55:09.105Z,5.30
2023-02-24T09:58:16.324Z,5.40
2023-02-24T10:00:57.903Z,5.40
2023-02-24T10:03:42.775Z,5.50
2023-02-24T10:06:20.987Z,5.40
2023-02-24T10:09:11.495Z,5.40
2023-02-24T10:11:53.507Z,5.40
2023-02-24T10:14:43.656Z,5.40
2023-02-24T10:17:23.917Z,5.40
2023-02-24T10:20:00.220Z,5.40
2023-02-24T10:22:50.705Z,5.30
2023-02-24T10:25:40.465Z,5.30
2023-02-24T10:28:23.222Z,5.40
2023-02-24T10:31:10.497Z,5.40
2023-02-24T10:33:45.589Z,5.40
2023-02-24T10:36:19.843Z,5.40
2023-02-24T10:38:50.754Z,5.40
2023-02-24T10:41:21.119Z,5.40
2023-02-24T10:43:56.998Z,5.40
2023-02-24T10:46:41.191Z,5.40
2023-02-24T10:49:16.538Z,5.40
2023-02-24T10:51:53.158Z,5.40
2023-02-24T10:54:44.936Z,5.50
2023-02-24T10:57:23.193Z,5.40
2023-02-24T11:00:13.535Z,5.50
2023-02-24T11:03:10.434Z,5.40
2023-02-24T11:06:08.254Z,5.30
2023-02-24T11:08:44.160Z,5.30
2023-02-24T11:11:25.462Z,5.30
2023-02-24T11:14:14.489Z,5.30
2023-02-24T11:17:08.060Z,5.20
2023-02-24T11:19:45.743Z,5.20
2023-02-24T11:22:19.546Z,5.30
2023-02-24T11:24:48.536Z,5.30
2023-02-24T11:27:18.529Z,5.30
2023-02-24T11:30:17.038Z,5.30
2023-02-24T11:33:01.520Z,5.30
2023-02-24T11:35:40.805Z,5.40
2023-02-24T11:38:27.790Z,5.40
2023-02-24T11:41:06.528Z,5.40
2023-02-24T11:43:38.394Z,5.30
2023-02-24T11:46:14.895Z,5.30
2023-02-24T11:48:48.892Z,5.30
2023-02-24T11:51:23.519Z,5.20
2023-02-24T11:53:54.953Z,5.20
2023-02-24T11:56:28.249Z,5.20
2023-02-24T11:59:02.580Z,5.20
2023-02-24T12:01:37.515Z,5.20
2023-02-24T12:04:17.649Z,5.20
2023-02-24T12:06:58.030Z,5.20
2023-02-24T12:09:34.101Z,5.10
2023-02-24T12:12:08.312Z,5.20
2023-02-24T12:14:41.599Z,5.20
2023-02-24T12:17:21.330Z,5.20
2023-02-24T12:20:05.147Z,5.20
2023-02-24T12:22:44.688Z,5.10
2023-02-24T12:25:15.053Z,5.10
2023-02-24T12:28:03.126Z,5.10
2023-02-24T12:31:09.223Z,5.20
2023-02-24T12:33:51.770Z,5.20
2023-02-24T12:36:33.692Z,5.20
2023-02-24T12:39:15.897Z,5.20
2023-02-24T12:42:02.526Z,5.20
2023-02-24T12:44:45.838Z,5.20
2023-02-24T12:47:17.858Z,5.30
2023-02-24T12:50:25.698Z,5.30
2023-02-24T12:53:08.017Z,5.30
2023-02-24T12:55:48.500Z,5.30
2023-02-24T12:58:23.516Z,5.30
2023-02-24T13:01:07.279Z,5.30
2023-02-24T13:04:16.790Z,5.30
2023-02-24T13:07:06.300Z,5.40
2023-02-24T13:09:46.133Z,5.40
2023-02-24T13:12:20.497Z,5.40
2023-02-24T13:14:50.414Z,5.40
2023-02-24T13:17:25.303Z,5.40
2023-02-24T13:19:55.762Z,5.40
2023-02-24T13:22:31.787Z,5.40
2023-02-24T13:25:18.385Z,5.40
2023-02-24T13:27:59.560Z,5.40
2023-02-24T13:30:39.655Z,5.50
2023-02-24T13:33:25.042Z,5.50
2023-02-24T13:36:08.073Z,5.40
2023-02-24T13:38:40.896Z,5.50
2023-02-24T13:41:38.593Z,5.50
2023-02-24T13:44:28.529Z,5.50
2023-02-24T13:47:38.015Z,5.50
2023-02-24T13:50:25.441Z,5.50
2023-02-24T13:53:19.322Z,5.40
2023-02-24T13:56:06.335Z,5.50
2023-02-24T13:58:50.358Z,5.50
2023-02-24T14:01:20.606Z,5.40
2023-02-24T14:04:07.563Z,5.50
2023-02-24T14:06:36.562Z,5.50
2023-02-24T14:09:07.166Z,5.50
2023-02-24T14:11:39.003Z,5.50
2023-02-24T14:14:07.778Z,5.60
2023-02-24T14:16:40.229Z,5.60
2023-02-24T14:19:16.357Z,5.50
2023-02-24T14:21:52.040Z,5.60
2023-02-24T14:24:21.252Z,5.60
2023-02-24T14:26:53.460Z,5.60
2023-02-24T14:29:26.681Z,5.70
2023-02-24T14:31:57.237Z,5.70
2023-02-24T14:34:28.083Z,5.70
2023-02-24T14:36:59.606Z,5.70
2023-02-24T14:39:30.402Z,5.70
2023-02-24T14:42:15.028Z,5.80
2023-02-24T14:44:47.954Z,5.80
2023-02-24T14:47:19.518Z,5.70
2023-02-24T14:49:57.350Z,5.70
2023-02-24T14:52:34.713Z,5.70
2023-02-24T14:55:07.312Z,5.80
2023-02-24T14:57:43.395Z,5.80
2023-02-24T15:00:22.020Z,5.90
2023-02-24T15:02:58.519Z,5.90
2023-02-24T15:05:26.896Z,5.90
2023-02-24T15:07:55.357Z,6.00
2023-02-24T15:10:27.571Z,6.00
2023-02-24T15:13:09.086Z,6.00
2023-02-24T15:15:40.083Z,6.00
2023-02-24T15:18:18.756Z,6.10
2023-02-24T15:20:48.480Z,6.10
2023-02-24T15:23:29.101Z,6.20
2023-02-24T15:25:57.599Z,6.20
2023-02-24T15:28:31.100Z,6.30
2023-02-24T15:31:09.749Z,6.30
2023-02-24T15:33:42.119Z,6.30
2023-02-24T15:36:14.343Z,6.30
2023-02-24T15:38:48.028Z,6.30
2023-02-24T15:41:18.304Z,6.40
2023-02-24T15:43:52.960Z,6.40
2023-02-24T15:46:30.482Z,6.40
2023-02-24T15:49:03.126Z,6.40
2023-02-24T15:51:38.896Z,6.40
2023-02-24T15:54:12.555Z,6.40
2023-02-24T15:56:43.013Z,6.40
2023-02-24T15:59:15.999Z,6.50
2023-02-24T16:01:44.443Z,6.40
2023-02-24T16:04:15.211Z,6.40
2023-02-24T16:06:54.317Z,6.40
2023-02-24T16:09:32.143Z,6.40
2023-02-24T16:12:01.545Z,6.40
2023-02-24T16:14:31.212Z,6.50
2023-02-24T16:17:00.517Z,6.50
2023-02-24T16:19:34.735Z,6.50
2023-02-24T16:22:03.335Z,6.50
2023-02-24T16:24:31.590Z,6.50
2023-02-24T16:26:59.922Z,6.50
2023-02-24T16:29:29.948Z,6.50
2023-02-24T16:31:58.463Z,6.50
2023-02-24T16:34:27.017Z,6.50
2023-02-24T16:36:55.334Z,6.50
2023-02-24T16:39:23.818Z,6.50
2023-02-24T16:41:52.119Z,6.50
2023-02-24T16:44:20.616Z,6.50
2023-02-24T16:46:50.786Z,6.50
2023-02-24T16:49:21.523Z,6.50
2023-02-24T16:51:49.829Z,6.50
2023-02-24T16:54:21.899Z,6.50
2023-02-24T16:56:50.701Z,6.40
2023-02-24T16:59:19.074Z,6.40
2023-02-24T17:01:48.858Z,6.40
2023-02-24T17:04:17.312Z,6.40
2023-02-24T17:06:46.154Z,6.30
2023-02-24T17:09:15.728Z,6.30
2023-02-24T17:11:44.872Z,6.30
2023-02-24T17:14:17.459Z,6.20
2023-02-24T17:16:46.443Z,6.20
2023-02-24T17:19:16.168Z,6.20
2023-02-24T17:21:46.905Z,6.20
2023-02-24T17:24:18.655Z,6.20
2023-02-24T17:26:47.625Z,6.20
2023-02-24T17:29:16.379Z,6.20
2023-02-24T17:31:45.139Z,6.20
2023-02-24T17:34:14.898Z,6.20
2023-02-24T17:36:43.318Z,6.20
2023-02-24T17:39:11.585Z,6.10
2023-02-24T17:41:40.051Z,6.10
2023-02-24T17:44:08.361Z,6.10
2023-02-24T17:46:36.859Z,6.00
2023-02-24T17:49:05.420Z,6.10
2023-02-24T17:51:35.314Z,6.00
2023-02-24T17:54:04.961Z,6.10
2023-02-24T17:56:33.358Z,6.00
2023-02-24T17:59:01.666Z,6.10
2023-02-24T18:01:30.146Z,6.10
2023-02-24T18:03:58.639Z,6.00
2023-02-24T18:06:27.512Z,6.00
2023-02-24T18:08:57.426Z,6.00
2023-02-24T18:11:25.707Z,6.00
2023-02-24T18:13:55.305Z,6.00
2023-02-24T18:16:24.053Z,6.00
2023-02-24T18:18:52.608Z,6.00
2023-02-24T18:21:21.052Z,6.00
2023-02-24T18:23:50.195Z,6.00
2023-02-24T18:26:21.960Z,6.00
2023-02-24T18:28:53.675Z,6.00
2023-02-24T18:31:24.791Z,6.00
2023-02-24T18:33:54.256Z,6.00
2023-02-24T18:36:22.761Z,6.00
2023-02-24T18:38:51.423Z,6.00
2023-02-24T18:41:23.767Z,6.00
2023-02-24T18:43:55.674Z,6.00
2023-02-24T18:46:25.907Z,5.90
2023-02-24T18:48:54.747Z,5.80
2023-02-24T18:51:26.167Z,5.80
2023-02-24T18:53:54.973Z,5.70
2023-02-24T18:56:26.601Z,5.60
2023-02-24T18:58:57.828Z,5.70
2023-02-24T19:01:29.549Z,5.70
2023-02-24T19:03:59.282Z,5.60
2023-02-24T19:06:31.763Z,5.50
2023-02-24T19:09:05.973Z,5.50
2023-02-24T19:11:36.179Z,5.50
2023-02-24T19:14:04.768Z,5.40
2023-02-24T19:16:34.062Z,5.40
2023-02-24T19:19:02.969Z,5.40
2023-02-24T19:21:33.257Z,5.40
2023-02-24T19:24:02.087Z,5.40
2023-02-24T19:26:30.965Z,5.40
2023-02-24T19:29:01.107Z,5.40
2023-02-24T19:31:31.889Z,5.40
2023-02-24T19:34:03.164Z,5.40
2023-02-24T19:36:34.137Z,5.40
2023-02-24T19:39:02.810Z,5.40
2023-02-24T19:41:31.212Z,5.40
2023-02-24T19:44:01.025Z,5.40
2023-02-24T19:46:32.990Z,5.40
2023-02-24T19:49:01.833Z,5.40
2023-02-24T19:51:31.340Z,5.40
2023-02-24T19:54:03.542Z,5.40
2023-02-24T19:56:34.179Z,5.30
2023-02-24T19:59:06.612Z,5.30
2023-02-24T20:01:35.383Z,5.30
2023-02-24T20:04:05.567Z,5.30
2023-02-24T20:06:36.855Z,5.30
2023-02-24T20:09:07.441Z,5.30
2023-02-24T20:11:36.668Z,5.20
2023-02-24T20:14:07.574Z,5.20
2023-02-24T20:16:37.382Z,5.20
2023-02-24T20:19:07.193Z,5.10
2023-02-24T20:21:36.769Z,5.00
2023-02-24T20:24:08.918Z,5.00
2023-02-24T20:26:38.572Z,5.00
2023-02-24T20:29:09.466Z,5.00
2023-02-24T20:31:38.344Z,4.90
2023-02-24T20:34:08.980Z,4.80
2023-02-24T20:36:37.796Z,4.80
2023-02-24T20:39:07.644Z,4.70
2023-02-24T20:41:36.277Z,4.80
2023-02-24T20:44:04.858Z,4.70
2023-02-24T20:46:34.836Z,4.70
2023-02-24T20:49:05.613Z,4.60
2023-02-24T20:51:37.151Z,4.60
2023-02-24T20:54:07.031Z,4.50
2023-02-24T20:56:38.009Z,4.60
2023-02-24T20:59:09.216Z,4.50
2023-02-24T21:01:40.116Z,4.40
2023-02-24T21:04:09.301Z,4.40
2023-02-24T21:06:38.262Z,4.30
2023-02-24T21:09:06.870Z,4.20
2023-02-24T21:11:35.771Z,4.30
2023-02-24T21:14:05.957Z,4.30
2023-02-24T21:16:36.454Z,4.30
2023-02-24T21:19:06.160Z,4.30
2023-02-24T21:21:34.495Z,4.30
2023-02-24T21:24:02.818Z,4.30
2023-02-24T21:26:31.206Z,4.30
2023-02-24T21:28:59.664Z,4.30
2023-02-24T21:31:29.029Z,4.30
2023-02-24T21:33:57.722Z,4.20
2023-02-24T21:36:28.135Z,4.20
2023-02-24T21:38:56.740Z,4.20
2023-02-24T21:41:25.396Z,4.20
2023-02-24T21:43:55.822Z,4.20
2023-02-24T21:46:28.763Z,4.10
2023-02-24T21:48:59.083Z,4.10
2023-02-24T21:51:29.933Z,4.10
2023-02-24T21:53:58.958Z,4.10
2023-02-24T21:56:29.862Z,4.00
2023-02-24T21:59:01.609Z,4.00
2023-02-24T22:01:32.823Z,4.00
2023-02-24T22:04:03.417Z,4.00
2023-02-24T22:06:37.595Z,3.90
2023-02-24T22:09:13.901Z,3.90
2023-02-24T22:11:43.297Z,3.90
2023-02-24T22:14:13.769Z,3.80
2023-02-24T22:16:43.321Z,3.80
2023-02-24T22:19:12.751Z,3.80
2023-02-24T22:21:43.843Z,3.90
2023-02-24T22:24:13.633Z,3.90
2023-02-24T22:26:42.519Z,3.90
2023-02-24T22:29:11.656Z,3.90
2023-02-24T22:31:43.484Z,3.90
2023-02-24T22:34:18.901Z,3.90
2023-02-24T22:36:48.532Z,3.90
2023-02-24T22:39:17.479Z,3.90
2023-02-24T22:41:47.492Z,3.90
2023-02-24T22:44:19.170Z,3.90
2023-02-24T22:46:48.383Z,3.90
2023-02-24T22:49:17.169Z,3.90
2023-02-24T22:51:45.670Z,3.90
2023-02-24T22:54:15.816Z,3.90
2023-02-24T22:56:44.470Z,4.00
2023-02-24T22:59:13.539Z,4.00
2023-02-24T23:01:43.686Z,3.90
2023-02-24T23:04:17.236Z,4.00
2023-02-24T23:06:47.533Z,3.90
2023-02-24T23:09:19.959Z,3.90
2023-02-24T23:11:49.317Z,3.90
2023-02-24T23:14:18.000Z,3.90
2023-02-24T23:16:48.416Z,3.90
2023-02-24T23:19:18.935Z,3.90
2023-02-24T23:21:51.133Z,3.90
2023-02-24T23:24:22.358Z,3.90
2023-02-24T23:26:54.385Z,3.90
2023-02-24T23:29:26.568Z,4.00
2023-02-24T23:31:55.211Z,3.90
2023-02-24T23:34:23.904Z,3.90
2023-02-24T23:36:52.206Z,3.90
2023-02-24T23:39:24.170Z,3.90
2023-02-24T23:41:57.420Z,3.90
2023-02-24T23:44:26.304Z,3.90
2023-02-24T23:46:54.719Z,3.90
2023-02-24T23:49:23.026Z,3.80
2023-02-24T23:51:51.344Z,3.80
2023-02-24T23:54:21.832Z,3.80
2023-02-24T23:56:50.412Z,3.80
2023-02-24T23:59:18.706Z,3.70
